Time;durP1;ratioP1;P1;durP2;ratioP2;P2;SDS_P1;SDS_P2;PMS_P1;PMS_P2;Temp;Humidity;BMP_temperature;BMP_pressure;BME280_temperature;BME280_humidity;BME280_pressure;Samples;Min_cycle;Max_cycle;Signal;HPM_P1;HPM_P2
2021/11/14 00:01:20;;;;;;;15.13;13.23;;;10.60;99.90;;;;;;4994122;28;20415;-55
2021/11/14 00:03:46;;;;;;;16.50;14.73;;;10.60;99.90;;;;;;4993731;28;20196;-56
2021/11/14 00:06:12;;;;;;;16.17;14.57;;;10.70;99.90;;;;;;5000327;28;20414;-53
2021/11/14 00:08:38;;;;;;;16.27;14.57;;;10.70;99.90;;;;;;5013765;28;20868;-54
2021/11/14 00:11:09;;;;;;;19.17;17.20;;;10.70;99.90;;;;;;5012406;28;20210;-57
2021/11/14 00:13:37;;;;;;;17.03;15.23;;;10.70;99.90;;;;;;5013909;28;20387;-55
2021/11/14 00:16:03;;;;;;;21.70;19.30;;;10.70;99.90;;;;;;5013962;28;20433;-55
2021/11/14 00:18:29;;;;;;;17.87;16.20;;;10.60;99.90;;;;;;5013666;28;20440;-54
2021/11/14 00:20:55;;;;;;;20.30;17.00;;;10.60;99.90;;;;;;5013771;28;20415;-56
2021/11/14 00:23:20;;;;;;;25.27;22.27;;;10.60;99.90;;;;;;5013792;28;20250;-54
2021/11/14 00:25:47;;;;;;;23.50;17.47;;;10.40;99.90;;;;;;5013165;28;20176;-54
2021/11/14 00:28:13;;;;;;;22.93;20.63;;;10.50;99.90;;;;;;5012511;28;20193;-56
2021/11/14 00:30:39;;;;;;;20.73;18.67;;;10.40;99.90;;;;;;5013724;28;20411;-54
2021/11/14 00:33:05;;;;;;;23.90;20.00;;;10.50;99.90;;;;;;5012436;28;20438;-57
2021/11/14 00:35:31;;;;;;;28.27;24.40;;;10.50;99.90;;;;;;5013542;28;20911;-55
2021/11/14 00:37:57;;;;;;;21.93;19.30;;;10.40;99.90;;;;;;5013343;28;21005;-54
2021/11/14 00:40:29;;;;;;;19.70;17.40;;;10.50;99.90;;;;;;5013763;28;20419;-53
2021/11/14 00:42:56;;;;;;;20.23;17.47;;;10.50;99.90;;;;;;5013105;28;20148;-57
2021/11/14 00:45:23;;;;;;;20.43;18.30;;;10.60;99.90;;;;;;5013322;28;20440;-53
2021/11/14 00:47:48;;;;;;;18.63;16.50;;;10.60;99.90;;;;;;5012866;28;20456;-54
2021/11/14 00:50:16;;;;;;;18.07;16.37;;;10.60;99.90;;;;;;5011971;28;20432;-56
2021/11/14 00:52:43;;;;;;;21.23;19.00;;;10.60;99.90;;;;;;5013719;28;20234;-53
2021/11/14 00:55:11;;;;;;;21.50;19.20;;;10.60;99.90;;;;;;5013345;28;20440;-57
2021/11/14 00:57:37;;;;;;;19.37;17.37;;;10.70;99.90;;;;;;5013231;28;20436;-52
2021/11/14 01:00:10;;;;;;;19.50;17.50;;;10.70;99.90;;;;;;5013338;28;20773;-56
2021/11/14 01:02:37;;;;;;;26.17;23.27;;;10.70;99.90;;;;;;5013864;28;20178;-55
2021/11/14 01:05:05;;;;;;;25.10;21.70;;;10.60;99.90;;;;;;5012646;28;20989;-54
2021/11/14 01:07:30;;;;;;;25.37;22.67;;;10.60;99.90;;;;;;5012940;28;20506;-56
2021/11/14 01:09:56;;;;;;;20.10;18.07;;;10.50;99.90;;;;;;5013651;28;20812;-55
2021/11/14 01:12:21;;;;;;;23.83;21.33;;;10.40;99.90;;;;;;5013548;28;20191;-56
2021/11/14 01:14:47;;;;;;;19.90;17.60;;;10.30;99.90;;;;;;5013196;28;20172;-55
2021/11/14 01:17:13;;;;;;;26.00;23.17;;;10.40;99.90;;;;;;5013209;28;20222;-55
2021/11/14 01:19:38;;;;;;;20.47;18.30;;;10.40;99.90;;;;;;5016057;28;20176;-56
2021/11/14 01:22:04;;;;;;;21.67;19.33;;;10.40;99.90;;;;;;5016530;28;20172;-54
2021/11/14 01:24:30;;;;;;;20.37;18.17;;;10.40;99.90;;;;;;5015167;28;20192;-55
2021/11/14 01:26:56;;;;;;;20.63;18.57;;;10.50;99.90;;;;;;5016487;28;20437;-56
2021/11/14 01:29:21;;;;;;;21.10;18.30;;;10.50;99.90;;;;;;5016262;28;20190;-55
2021/11/14 01:31:47;;;;;;;20.63;17.93;;;10.50;99.90;;;;;;5016000;28;20167;-52
2021/11/14 01:34:13;;;;;;;19.13;16.80;;;10.50;99.90;;;;;;4993799;28;20184;-54
2021/11/14 01:36:38;;;;;;;19.63;17.53;;;10.50;99.90;;;;;;4996768;28;20417;-55
2021/11/14 01:39:07;;;;;;;18.60;16.80;;;10.60;99.90;;;;;;4996641;28;20283;-52
2021/11/14 01:41:34;;;;;;;19.87;17.83;;;10.70;99.90;;;;;;4996641;28;20166;-53
2021/11/14 01:44:02;;;;;;;20.90;18.73;;;10.70;99.90;;;;;;4996820;28;20458;-55
2021/11/14 01:46:28;;;;;;;19.37;17.47;;;10.70;99.90;;;;;;4996598;28;20407;-53
2021/11/14 01:48:54;;;;;;;20.23;18.13;;;10.70;99.90;;;;;;4998609;28;21051;-56
2021/11/14 01:51:20;;;;;;;20.80;17.80;;;10.70;99.90;;;;;;5016080;28;20462;-56
2021/11/14 01:53:47;;;;;;;19.20;17.20;;;10.80;99.90;;;;;;5016330;28;20892;-54
2021/11/14 01:56:14;;;;;;;20.73;18.53;;;10.80;99.90;;;;;;5016174;28;20414;-54
2021/11/14 01:58:41;;;;;;;20.33;18.13;;;10.80;99.90;;;;;;5016030;28;20481;-53
2021/11/14 02:01:16;;;;;;;19.47;17.47;;;10.80;99.90;;;;;;5015828;28;20413;-53
2021/11/14 02:03:49;;;;;;;21.00;18.80;;;10.80;99.90;;;;;;5015163;28;20476;-56
2021/11/14 02:06:15;;;;;;;20.20;18.00;;;10.80;99.90;;;;;;5015820;28;20390;-53
2021/11/14 02:08:42;;;;;;;20.87;18.70;;;10.80;99.90;;;;;;5015872;28;20435;-53
2021/11/14 02:11:10;;;;;;;18.40;16.47;;;10.80;99.90;;;;;;5015908;28;20762;-54
2021/11/14 02:13:36;;;;;;;19.63;17.50;;;10.80;99.90;;;;;;5015827;28;20409;-52
2021/11/14 02:16:02;;;;;;;20.93;17.03;;;10.70;99.90;;;;;;5015863;28;20874;-53
2021/11/14 02:18:27;;;;;;;20.40;18.30;;;10.80;99.90;;;;;;5015250;28;20446;-55
2021/11/14 02:20:53;;;;;;;19.83;17.77;;;10.70;99.90;;;;;;5015387;28;20413;-53
2021/11/14 02:23:23;;;;;;;20.67;18.47;;;10.60;99.90;;;;;;5015565;28;20540;-55
2021/11/14 02:25:50;;;;;;;20.60;18.40;;;10.70;99.90;;;;;;5015404;28;20399;-54
2021/11/14 02:28:17;;;;;;;19.70;17.70;;;10.60;99.90;;;;;;5014886;28;20466;-53
2021/11/14 02:30:45;;;;;;;19.20;17.20;;;10.60;99.90;;;;;;5015192;28;20453;-53
2021/11/14 02:33:11;;;;;;;22.00;18.90;;;10.50;99.90;;;;;;5015284;28;20408;-53
2021/11/14 02:35:37;;;;;;;19.20;17.20;;;10.50;99.90;;;;;;5015217;28;20925;-54
2021/11/14 02:38:04;;;;;;;20.37;18.23;;;10.60;99.90;;;;;;5015170;28;20192;-53
2021/11/14 02:40:30;;;;;;;23.03;20.57;;;10.60;99.90;;;;;;5015176;28;20803;-53
2021/11/14 02:42:55;;;;;;;20.27;17.67;;;10.60;99.90;;;;;;5014918;28;20431;-53
2021/11/14 02:45:24;;;;;;;20.30;18.20;;;10.60;99.90;;;;;;5015549;28;20411;-55
2021/11/14 02:47:51;;;;;;;19.77;17.17;;;10.70;99.90;;;;;;5015293;28;20203;-57
2021/11/14 02:50:17;;;;;;;20.80;18.70;;;10.70;99.90;;;;;;5004967;28;20419;-53
2021/11/14 02:52:43;;;;;;;19.30;17.17;;;10.70;99.90;;;;;;4986666;28;20411;-54
2021/11/14 02:55:12;;;;;;;19.60;17.30;;;10.60;99.90;;;;;;4995687;28;20415;-55
2021/11/14 02:57:38;;;;;;;17.70;15.90;;;10.60;99.90;;;;;;4995358;28;20665;-55
2021/11/14 03:00:16;;;;;;;18.43;16.57;;;10.60;99.90;;;;;;4995138;28;20441;-52
2021/11/14 03:02:42;;;;;;;20.33;18.10;;;10.60;99.90;;;;;;4995231;28;20188;-53
2021/11/14 03:05:14;;;;;;;19.27;17.17;;;10.60;99.90;;;;;;4994591;28;20496;-53
2021/11/14 03:07:41;;;;;;;21.87;18.60;;;10.60;99.90;;;;;;4995082;28;20236;-50
2021/11/14 03:10:09;;;;;;;18.33;16.50;;;10.60;99.90;;;;;;4995022;28;20405;-53
2021/11/14 03:12:35;;;;;;;24.10;21.13;;;10.70;99.90;;;;;;4995158;28;20416;-55
2021/11/14 03:15:01;;;;;;;18.50;16.70;;;10.70;99.90;;;;;;4994837;28;20956;-53
2021/11/14 03:17:27;;;;;;;18.10;16.20;;;10.80;99.90;;;;;;4994580;28;20451;-55
2021/11/14 03:19:52;;;;;;;18.90;16.90;;;10.70;99.90;;;;;;5004447;28;20411;-56
2021/11/14 03:22:18;;;;;;;19.23;17.20;;;10.60;99.90;;;;;;5013209;28;20195;-53
2021/11/14 03:24:44;;;;;;;19.57;17.57;;;10.60;99.90;;;;;;5013050;28;20342;-53
2021/11/14 03:27:10;;;;;;;21.03;18.80;;;10.60;99.90;;;;;;5014519;28;20408;-54
2021/11/14 03:29:36;;;;;;;21.03;18.83;;;10.50;99.90;;;;;;5013160;28;20635;-53
2021/11/14 03:32:03;;;;;;;19.93;17.70;;;10.50;99.90;;;;;;5014462;28;20430;-53
2021/11/14 03:34:28;;;;;;;24.90;22.10;;;10.40;99.90;;;;;;5003113;28;20185;-53
2021/11/14 03:36:54;;;;;;;19.17;17.20;;;10.50;99.90;;;;;;4994909;28;20400;-53
2021/11/14 03:39:20;;;;;;;21.70;18.60;;;10.50;99.90;;;;;;4995064;28;20189;-53
2021/11/14 03:41:46;;;;;;;19.10;17.20;;;10.60;99.90;;;;;;4994489;28;20179;-53
2021/11/14 03:44:12;;;;;;;17.87;16.00;;;10.60;99.90;;;;;;4995309;28;20453;-53
2021/11/14 03:46:38;;;;;;;19.20;16.70;;;10.70;99.90;;;;;;4995457;28;20235;-55
2021/11/14 03:49:05;;;;;;;18.23;16.50;;;10.60;99.90;;;;;;5020065;22;20224;-57
2021/11/14 03:51:31;;;;;;;21.30;19.13;;;10.50;99.90;;;;;;5013292;28;20481;-54
2021/11/14 03:53:58;;;;;;;20.03;17.53;;;10.50;99.90;;;;;;5014173;28;20752;-55
2021/11/14 03:56:25;;;;;;;21.17;18.87;;;10.40;99.90;;;;;;5013849;28;20397;-56
2021/11/14 03:58:51;;;;;;;21.90;19.60;;;10.50;99.90;;;;;;5003859;28;20408;-57
2021/11/14 04:01:21;;;;;;;23.70;19.50;;;10.60;99.90;;;;;;4994215;28;20873;-57
2021/11/14 04:03:48;;;;;;;22.30;19.70;;;10.60;99.90;;;;;;4993719;28;20452;-54
2021/11/14 04:06:14;;;;;;;20.43;18.23;;;10.60;99.90;;;;;;4993693;28;20439;-56
2021/11/14 04:08:42;;;;;;;22.93;19.20;;;10.50;99.90;;;;;;4994188;28;20807;-56
2021/11/14 04:11:08;;;;;;;24.13;21.63;;;10.60;99.90;;;;;;4993858;28;20545;-57
2021/11/14 04:13:34;;;;;;;19.50;17.50;;;10.50;99.90;;;;;;4994036;28;20447;-57
2021/11/14 04:16:03;;;;;;;20.03;17.13;;;10.50;99.90;;;;;;4993873;28;20907;-55
2021/11/14 04:18:29;;;;;;;25.07;20.53;;;10.50;99.90;;;;;;4993913;28;20795;-57
2021/11/14 04:20:55;;;;;;;24.13;21.33;;;10.50;99.90;;;;;;4993917;28;20410;-55
2021/11/14 04:23:22;;;;;;;19.67;17.77;;;10.60;99.90;;;;;;4993821;28;20459;-55
2021/11/14 04:25:49;;;;;;;18.90;16.37;;;10.60;99.90;;;;;;4994154;28;20231;-55
2021/11/14 04:28:16;;;;;;;17.57;15.83;;;10.70;99.90;;;;;;4993601;28;20925;-56
2021/11/14 04:30:43;;;;;;;18.90;17.00;;;10.70;99.90;;;;;;4993959;28;20469;-54
2021/11/14 04:33:09;;;;;;;22.60;18.60;;;10.60;99.90;;;;;;4993513;28;20404;-54
2021/11/14 04:35:35;;;;;;;24.03;20.83;;;10.60;99.90;;;;;;4993498;28;20452;-54
2021/11/14 04:38:01;;;;;;;18.20;16.30;;;10.50;99.90;;;;;;4993301;28;20845;-57
2021/11/14 04:40:28;;;;;;;19.03;17.13;;;10.50;99.90;;;;;;4993235;28;20918;-55
2021/11/14 04:42:54;;;;;;;20.07;18.03;;;10.50;99.90;;;;;;4994118;28;20426;-55
2021/11/14 04:45:20;;;;;;;22.50;18.70;;;10.40;99.90;;;;;;4993703;28;20440;-58
2021/11/14 04:47:46;;;;;;;20.23;17.80;;;10.40;99.90;;;;;;4993440;28;20177;-57
2021/11/14 04:50:14;;;;;;;23.40;19.60;;;10.40;99.90;;;;;;4993778;28;20392;-57
2021/11/14 04:52:40;;;;;;;20.47;18.27;;;10.40;99.90;;;;;;4996750;28;20172;-55
2021/11/14 04:55:06;;;;;;;20.00;17.90;;;10.40;99.90;;;;;;4997676;28;20414;-58
2021/11/14 04:57:33;;;;;;;22.97;20.53;;;10.40;99.90;;;;;;4997396;28;20715;-57
2021/11/14 04:59:58;;;;;;;21.50;18.60;;;10.40;99.90;;;;;;4997294;28;20444;-57
2021/11/14 05:02:24;;;;;;;19.20;16.53;;;10.40;99.90;;;;;;4996810;28;20523;-56
2021/11/14 05:04:50;;;;;;;19.97;17.87;;;10.50;99.90;;;;;;4997057;28;20658;-58
2021/11/14 05:07:16;;;;;;;18.33;16.43;;;10.50;99.90;;;;;;4997534;28;20174;-56
2021/11/14 05:09:42;;;;;;;18.90;16.90;;;10.60;99.90;;;;;;4997197;28;20531;-55
2021/11/14 05:12:08;;;;;;;19.20;17.30;;;10.60;99.90;;;;;;4997650;28;20232;-56
2021/11/14 05:14:34;;;;;;;27.73;24.23;;;10.60;99.90;;;;;;4997130;28;20647;-55
2021/11/14 05:17:00;;;;;;;22.17;18.67;;;10.50;99.90;;;;;;4997087;28;20425;-58
2021/11/14 05:19:25;;;;;;;20.10;17.20;;;10.50;99.90;;;;;;4996298;28;20180;-56
2021/11/14 05:21:51;;;;;;;19.33;16.33;;;10.60;99.90;;;;;;4996820;28;20169;-55
2021/11/14 05:24:17;;;;;;;19.43;17.40;;;10.60;99.90;;;;;;4996681;28;20200;-57
2021/11/14 05:26:42;;;;;;;20.10;18.00;;;10.50;99.90;;;;;;4996842;28;20603;-57
2021/11/14 05:29:08;;;;;;;18.37;16.33;;;10.60;99.90;;;;;;4997302;28;20193;-57
2021/11/14 05:31:34;;;;;;;21.53;17.87;;;10.50;99.90;;;;;;4996865;28;20169;-57
2021/11/14 05:34:01;;;;;;;17.87;15.97;;;10.60;99.90;;;;;;4996154;28;20888;-55
2021/11/14 05:36:27;;;;;;;19.60;17.07;;;10.50;99.90;;;;;;4996730;28;20517;-56
2021/11/14 05:38:53;;;;;;;19.87;17.60;;;10.50;99.90;;;;;;4993156;28;20432;-56
2021/11/14 05:41:19;;;;;;;19.27;16.97;;;10.60;99.90;;;;;;4996412;28;20823;-58
2021/11/14 05:43:45;;;;;;;17.60;15.70;;;10.60;99.90;;;;;;4990999;28;20198;-56
2021/11/14 05:46:11;;;;;;;19.67;17.27;;;10.70;99.90;;;;;;4993193;28;20751;-51
2021/11/14 05:48:37;;;;;;;17.17;15.10;;;10.70;99.90;;;;;;4997417;28;20439;-56
2021/11/14 05:51:03;;;;;;;19.60;17.03;;;10.70;99.90;;;;;;4997285;28;20175;-54
2021/11/14 05:53:29;;;;;;;21.97;19.67;;;10.70;99.90;;;;;;4996399;28;20179;-57
2021/11/14 05:55:54;;;;;;;20.23;18.10;;;10.60;99.90;;;;;;4996093;28;20413;-58
2021/11/14 05:58:45;;;;;;;19.10;16.73;;;10.70;99.90;;;;;;4996020;28;20192;-57
2021/11/14 06:01:56;;;;;;;18.93;16.90;;;10.70;99.90;;;;;;4995541;28;20552;-54
2021/11/14 06:06:23;;;;;;;19.33;16.37;;;10.70;99.90;;;;;;4995958;28;20491;-56
2021/11/14 06:08:49;;;;;;;22.97;19.53;;;10.60;99.90;;;;;;4996032;28;20220;-57
2021/11/14 06:11:16;;;;;;;20.43;18.07;;;10.60;99.90;;;;;;4988853;28;20249;-53
2021/11/14 06:13:43;;;;;;;21.90;18.07;;;10.60;99.90;;;;;;4991314;28;20548;-58
2021/11/14 06:16:09;;;;;;;20.20;17.63;;;10.50;99.90;;;;;;4994895;28;20428;-53
2021/11/14 06:18:34;;;;;;;20.13;17.17;;;10.50;99.90;;;;;;4995700;28;20568;-57
2021/11/14 06:21:00;;;;;;;18.00;16.10;;;10.60;99.90;;;;;;4994627;28;20165;-57
2021/11/14 06:23:26;;;;;;;19.30;17.13;;;10.60;99.90;;;;;;4995842;28;20203;-55
2021/11/14 06:25:52;;;;;;;21.60;19.23;;;10.60;99.90;;;;;;4995795;28;20178;-51
2021/11/14 06:28:18;;;;;;;20.80;17.67;;;10.60;99.90;;;;;;4996015;28;20934;-55
2021/11/14 06:30:44;;;;;;;20.90;16.97;;;10.60;99.90;;;;;;4996976;28;20423;-58
2021/11/14 06:33:10;;;;;;;17.40;15.40;;;10.60;99.90;;;;;;4995696;28;20431;-57
2021/11/14 06:35:35;;;;;;;21.70;17.77;;;10.50;99.90;;;;;;4997104;28;20165;-58
2021/11/14 06:38:01;;;;;;;23.03;19.37;;;10.50;99.90;;;;;;4994745;28;20228;-56
2021/11/14 06:40:27;;;;;;;18.23;16.20;;;10.50;99.90;;;;;;4986752;28;20247;-54
2021/11/14 06:42:53;;;;;;;28.27;21.80;;;10.40;99.90;;;;;;4995601;28;20434;-57
2021/11/14 06:45:19;;;;;;;25.93;20.77;;;10.40;99.90;;;;;;4995592;28;20554;-57
2021/11/14 06:47:44;;;;;;;28.77;21.50;;;10.40;99.90;;;;;;4994901;28;20210;-58
2021/11/14 06:50:11;;;;;;;22.27;18.60;;;10.40;99.90;;;;;;4994919;28;20689;-57
2021/11/14 06:52:42;;;;;;;22.77;17.70;;;10.30;99.90;;;;;;4995395;28;20167;-57
2021/11/14 06:55:09;;;;;;;22.40;19.40;;;10.40;99.90;;;;;;4992085;28;20422;-57
2021/11/14 06:57:35;;;;;;;23.17;19.60;;;10.40;99.90;;;;;;4987016;28;20466;-57
2021/11/14 07:00:01;;;;;;;18.30;16.33;;;10.40;99.90;;;;;;4994839;28;20459;-57
2021/11/14 07:02:26;;;;;;;26.13;20.43;;;10.40;99.90;;;;;;4994923;28;20176;-57
2021/11/14 07:04:52;;;;;;;22.30;18.00;;;10.30;99.90;;;;;;4994603;28;20604;-57
2021/11/14 07:07:17;;;;;;;19.00;16.60;;;10.40;99.90;;;;;;4994868;28;20225;-56
2021/11/14 07:09:43;;;;;;;22.33;18.17;;;10.40;99.90;;;;;;4994731;28;20181;-55
2021/11/14 07:12:10;;;;;;;21.03;18.60;;;10.40;99.90;;;;;;4994756;28;20203;-56
2021/11/14 07:14:36;;;;;;;27.40;21.43;;;10.40;99.90;;;;;;4977443;28;20649;-55
2021/11/14 07:17:02;;;;;;;25.73;21.07;;;10.30;99.90;;;;;;4995152;28;20411;-56
2021/11/14 07:19:28;;;;;;;20.63;16.77;;;10.30;99.90;;;;;;4994105;28;20427;-56
2021/11/14 07:21:54;;;;;;;22.17;18.40;;;10.40;99.90;;;;;;4994597;28;20809;-57
2021/11/14 07:24:21;;;;;;;20.53;16.97;;;10.40;99.90;;;;;;4994446;28;20538;-57
2021/11/14 07:26:46;;;;;;;17.00;15.07;;;10.50;99.90;;;;;;4995316;28;20215;-55
2021/11/14 07:29:12;;;;;;;18.13;15.00;;;10.60;99.90;;;;;;4994374;28;20834;-58
2021/11/14 07:31:38;;;;;;;20.80;16.77;;;10.60;99.90;;;;;;4994551;28;20173;-57
2021/11/14 07:34:03;;;;;;;23.13;19.63;;;10.70;99.90;;;;;;4991173;28;20212;-57
2021/11/14 07:36:29;;;;;;;19.90;16.00;;;10.70;99.90;;;;;;4994395;28;20639;-53
2021/11/14 07:38:55;;;;;;;26.13;19.27;;;10.80;99.90;;;;;;4995424;28;20189;-56
2021/11/14 07:41:20;;;;;;;23.47;19.10;;;10.80;99.90;;;;;;4994409;28;20168;-57
2021/11/14 07:43:46;;;;;;;23.77;18.63;;;10.80;99.90;;;;;;4994308;28;20695;-56
2021/11/14 07:46:11;;;;;;;25.13;19.70;;;10.80;99.90;;;;;;4994656;28;20305;-53
2021/11/14 07:48:37;;;;;;;19.47;16.73;;;10.70;99.90;;;;;;4993806;28;20604;-56
2021/11/14 07:51:03;;;;;;;19.93;15.80;;;10.70;99.90;;;;;;4994031;28;20168;-53
2021/11/14 07:53:31;;;;;;;21.30;17.53;;;10.80;99.90;;;;;;4994526;28;20170;-57
2021/11/14 07:55:57;;;;;;;19.40;17.03;;;10.90;99.90;;;;;;4976519;28;20420;-57
2021/11/14 07:58:23;;;;;;;19.33;17.13;;;10.90;99.90;;;;;;4994109;28;20801;-57
2021/11/14 08:00:50;;;;;;;24.60;21.37;;;11.00;99.90;;;;;;4993957;28;20410;-57
2021/11/14 08:03:16;;;;;;;23.40;20.50;;;10.90;99.90;;;;;;4993942;28;20204;-57
2021/11/14 08:05:42;;;;;;;29.23;25.47;;;10.90;99.90;;;;;;4993689;28;20492;-57
2021/11/14 08:08:09;;;;;;;21.13;18.93;;;10.70;99.90;;;;;;4994067;28;20414;-57
2021/11/14 08:10:37;;;;;;;26.30;22.03;;;10.70;99.90;;;;;;4993915;28;20527;-57
2021/11/14 08:13:04;;;;;;;41.37;37.07;;;10.70;99.90;;;;;;4994384;28;20408;-57
2021/11/14 08:15:29;;;;;;;27.83;24.40;;;10.60;99.90;;;;;;4994265;28;20438;-56
2021/11/14 08:17:55;;;;;;;33.90;29.60;;;10.70;99.90;;;;;;4993825;28;20408;-56
2021/11/14 08:20:22;;;;;;;26.33;23.60;;;10.80;99.90;;;;;;4976515;28;20164;-57
2021/11/14 08:22:48;;;;;;;27.17;24.27;;;10.80;99.90;;;;;;4994154;28;20226;-55
2021/11/14 08:25:16;;;;;;;23.90;19.20;;;10.60;99.90;;;;;;4993812;28;20936;-57
2021/11/14 08:27:43;;;;;;;20.80;18.60;;;10.70;99.90;;;;;;4996559;28;20432;-57
2021/11/14 08:30:12;;;;;;;23.03;20.63;;;10.50;99.90;;;;;;4997920;28;20443;-55
2021/11/14 08:32:39;;;;;;;24.07;21.47;;;10.40;99.90;;;;;;4996958;28;20420;-56
2021/11/14 08:35:06;;;;;;;23.97;21.20;;;10.40;99.90;;;;;;4997582;28;20544;-56
2021/11/14 08:37:32;;;;;;;20.70;18.50;;;10.40;99.90;;;;;;4997660;28;20932;-56
2021/11/14 08:39:57;;;;;;;24.07;21.57;;;10.50;99.90;;;;;;4997716;28;20428;-56
2021/11/14 08:42:24;;;;;;;20.47;18.40;;;10.70;99.90;;;;;;4997759;28;20502;-57
2021/11/14 08:44:49;;;;;;;21.23;18.93;;;10.90;99.90;;;;;;4997579;28;20192;-56
2021/11/14 08:47:16;;;;;;;24.90;22.37;;;11.20;99.90;;;;;;4997162;28;20404;-57
2021/11/14 08:49:42;;;;;;;20.80;18.80;;;11.30;99.90;;;;;;4996782;28;20956;-58
2021/11/14 08:52:09;;;;;;;20.50;18.40;;;11.20;99.90;;;;;;4997256;28;20916;-58
2021/11/14 08:54:35;;;;;;;19.37;17.37;;;11.40;99.90;;;;;;4997577;28;20443;-57
2021/11/14 08:57:01;;;;;;;17.53;15.83;;;11.60;99.90;;;;;;4997563;28;20546;-57
2021/11/14 08:59:31;;;;;;;18.33;16.43;;;11.60;99.90;;;;;;4997603;28;20426;-57
2021/11/14 09:02:00;;;;;;;19.50;17.37;;;11.40;99.90;;;;;;4997480;28;20480;-57
2021/11/14 09:04:26;;;;;;;19.57;17.60;;;11.70;99.90;;;;;;4996817;28;20989;-56
2021/11/14 09:06:54;;;;;;;20.87;18.93;;;11.90;99.90;;;;;;4997178;28;20404;-56
2021/11/14 09:09:21;;;;;;;21.47;19.23;;;11.90;99.90;;;;;;4997524;28;20189;-54
2021/11/14 09:11:47;;;;;;;18.40;16.57;;;11.50;99.90;;;;;;4996719;28;20419;-57
2021/11/14 09:14:13;;;;;;;18.17;16.20;;;11.70;99.90;;;;;;4997288;28;20414;-57
2021/11/14 09:16:39;;;;;;;20.60;18.50;;;11.90;99.90;;;;;;4997058;28;20784;-58
2021/11/14 09:19:07;;;;;;;18.00;15.87;;;12.10;99.90;;;;;;4996246;28;20242;-56
2021/11/14 09:21:34;;;;;;;18.30;16.40;;;12.20;99.90;;;;;;4996735;28;20173;-58
2021/11/14 09:24:00;;;;;;;20.40;17.30;;;12.10;99.90;;;;;;4997327;28;20447;-58
2021/11/14 09:26:26;;;;;;;18.13;16.33;;;12.20;99.90;;;;;;4995974;28;20411;-54
2021/11/14 09:28:51;;;;;;;23.10;20.90;;;12.10;99.90;;;;;;4996487;28;20192;-54
2021/11/14 09:31:17;;;;;;;31.07;28.37;;;11.80;99.90;;;;;;4993689;28;20176;-56
2021/11/14 09:33:45;;;;;;;20.00;18.00;;;11.80;99.90;;;;;;4996689;28;20264;-54
2021/11/14 09:36:11;;;;;;;21.30;19.07;;;11.70;99.90;;;;;;4996659;28;20173;-56
2021/11/14 09:38:37;;;;;;;19.37;17.43;;;11.80;99.90;;;;;;4994296;28;20451;-51
2021/11/14 09:41:07;;;;;;;18.83;17.00;;;12.10;99.90;;;;;;4996995;28;20404;-56
2021/11/14 09:43:33;;;;;;;18.97;16.97;;;12.30;99.90;;;;;;4996544;28;20459;-56
2021/11/14 09:45:59;;;;;;;18.37;16.47;;;12.10;99.90;;;;;;4996341;28;20414;-53
2021/11/14 09:48:25;;;;;;;19.07;17.27;;;12.10;99.90;;;;;;5004417;22;20460;-58
2021/11/14 09:50:54;;;;;;;19.53;17.50;;;12.30;99.90;;;;;;5014572;28;20426;-60
2021/11/14 09:53:20;;;;;;;19.37;17.40;;;12.10;99.90;;;;;;4996445;28;20159;-60
2021/11/14 09:55:46;;;;;;;18.80;16.80;;;12.20;99.90;;;;;;4996353;28;20838;-59
2021/11/14 09:58:11;;;;;;;18.73;16.83;;;11.90;99.90;;;;;;4996536;28;20188;-60
2021/11/14 10:00:40;;;;;;;19.03;16.90;;;11.50;99.90;;;;;;4959999;28;20874;-60
2021/11/14 10:03:07;;;;;;;18.67;16.73;;;11.50;99.90;;;;;;4976616;28;20162;-59
2021/11/14 10:05:34;;;;;;;17.33;15.53;;;11.80;99.90;;;;;;4976487;28;20412;-60
2021/11/14 10:08:05;;;;;;;17.90;16.10;;;11.70;99.90;;;;;;4982730;28;20423;-60
2021/11/14 10:10:37;;;;;;;18.93;16.93;;;11.90;99.90;;;;;;4995888;28;20523;-60
2021/11/14 10:13:20;;;;;;;18.10;16.20;;;11.90;99.90;;;;;;4996392;28;20481;-57
2021/11/14 10:15:49;;;;;;;20.33;17.03;;;12.10;99.90;;;;;;4995948;28;20415;-60
2021/11/14 10:18:19;;;;;;;15.93;14.33;;;12.20;99.90;;;;;;4996254;28;20407;-60
2021/11/14 10:20:45;;;;;;;19.83;17.67;;;12.10;99.90;;;;;;4995865;28;20414;-59
2021/11/14 10:23:15;;;;;;;19.90;17.90;;;12.30;99.90;;;;;;4995563;28;20475;-59
2021/11/14 10:25:45;;;;;;;18.80;16.77;;;12.20;99.90;;;;;;4995988;28;20187;-60
2021/11/14 10:28:12;;;;;;;25.30;20.10;;;12.30;99.90;;;;;;4996189;28;20549;-60
2021/11/14 10:30:43;;;;;;;19.07;16.47;;;12.00;99.90;;;;;;4995848;28;20927;-60
2021/11/14 10:33:11;;;;;;;19.63;16.23;;;11.80;99.90;;;;;;4995571;28;20457;-60
2021/11/14 10:35:40;;;;;;;21.13;17.73;;;12.00;99.90;;;;;;4995406;28;20397;-60
2021/11/14 10:38:11;;;;;;;22.03;18.07;;;11.90;99.90;;;;;;4995683;28;20408;-60
2021/11/14 10:40:40;;;;;;;23.43;18.70;;;12.20;99.90;;;;;;4977832;28;20995;-60
2021/11/14 10:43:07;;;;;;;22.57;19.93;;;12.30;99.90;;;;;;4995371;28;20449;-59
2021/11/14 10:45:40;;;;;;;21.80;17.90;;;12.20;99.90;;;;;;4995689;28;20849;-61
2021/11/14 10:48:09;;;;;;;23.30;19.10;;;12.20;99.90;;;;;;4995261;28;20396;-60
2021/11/14 10:50:38;;;;;;;21.30;17.40;;;12.20;99.90;;;;;;4995028;28;20442;-60
2021/11/14 10:53:12;;;;;;;19.50;17.37;;;11.80;99.90;;;;;;4995223;28;20503;-60
2021/11/14 10:55:52;;;;;;;21.33;18.10;;;11.60;99.90;;;;;;4977828;28;20423;-60
2021/11/14 10:58:21;;;;;;;22.33;18.20;;;11.30;99.90;;;;;;4995317;28;20419;-60
2021/11/14 11:00:55;;;;;;;23.30;19.80;;;11.50;99.90;;;;;;4995096;28;20419;-60
2021/11/14 11:03:22;;;;;;;22.83;18.43;;;11.50;99.90;;;;;;4994402;28;20422;-59
2021/11/14 11:05:48;;;;;;;19.17;16.40;;;11.70;99.90;;;;;;4994712;28;20408;-59
2021/11/14 11:08:22;;;;;;;20.10;17.40;;;11.90;99.90;;;;;;4994987;28;20404;-60
2021/11/14 11:10:53;;;;;;;23.00;18.40;;;12.00;99.90;;;;;;4995038;28;20415;-60
2021/11/14 11:13:38;;;;;;;19.30;17.03;;;12.00;99.90;;;;;;4995189;28;20388;-60
2021/11/14 11:16:07;;;;;;;23.37;17.90;;;11.90;99.90;;;;;;4995177;28;20753;-60
2021/11/14 11:18:34;;;;;;;21.93;18.00;;;12.00;99.90;;;;;;4994392;28;20433;-59
2021/11/14 11:21:03;;;;;;;20.80;17.43;;;11.80;99.90;;;;;;4994690;28;20411;-59
2021/11/14 11:23:31;;;;;;;20.60;17.73;;;11.70;99.90;;;;;;4994503;28;20454;-60
2021/11/14 11:25:59;;;;;;;22.47;18.70;;;11.70;99.90;;;;;;4991392;28;20408;-59
2021/11/14 11:28:31;;;;;;;21.30;17.87;;;11.70;99.90;;;;;;4994320;28;20501;-60
2021/11/14 11:31:03;;;;;;;20.37;17.00;;;12.00;99.90;;;;;;4994717;28;20435;-59
2021/11/14 11:33:32;;;;;;;18.50;16.50;;;12.00;99.90;;;;;;4994125;28;20408;-60
2021/11/14 11:35:58;;;;;;;22.77;18.30;;;12.00;99.90;;;;;;4994358;28;20967;-59
2021/11/14 11:38:26;;;;;;;22.53;18.10;;;12.00;99.90;;;;;;4994162;28;20423;-60
2021/11/14 11:40:57;;;;;;;22.00;17.47;;;12.20;99.90;;;;;;4994865;28;20415;-60
2021/11/14 11:43:24;;;;;;;19.17;14.67;;;12.10;99.90;;;;;;4994270;28;20395;-60
2021/11/14 11:45:51;;;;;;;20.40;16.80;;;12.00;99.90;;;;;;4995079;28;20546;-58
2021/11/14 11:48:24;;;;;;;21.13;17.53;;;11.90;99.90;;;;;;4994073;28;20407;-59
2021/11/14 11:50:50;;;;;;;22.90;18.90;;;11.80;99.90;;;;;;4993996;28;20417;-59
2021/11/14 11:53:25;;;;;;;21.20;16.90;;;11.90;99.90;;;;;;4994175;28;20402;-60
2021/11/14 11:56:08;;;;;;;23.70;19.03;;;12.10;99.90;;;;;;4994212;28;20429;-59
2021/11/14 11:58:48;;;;;;;20.87;18.03;;;12.00;99.90;;;;;;4994374;28;20418;-59
2021/11/14 12:01:30;;;;;;;23.60;18.90;;;12.10;99.90;;;;;;4993680;28;20385;-60
2021/11/14 12:04:15;;;;;;;19.40;16.60;;;11.90;99.90;;;;;;4994245;28;20521;-54
2021/11/14 12:06:42;;;;;;;19.37;16.07;;;12.00;99.90;;;;;;4993967;28;20399;-60
2021/11/14 12:09:11;;;;;;;20.17;17.23;;;12.20;99.90;;;;;;4993998;28;20435;-58
2021/11/14 12:11:40;;;;;;;20.90;18.70;;;12.20;99.90;;;;;;4994005;28;20405;-59
2021/11/14 12:14:27;;;;;;;21.10;18.80;;;12.10;99.90;;;;;;4994812;28;20437;-58
2021/11/14 12:17:08;;;;;;;19.67;16.30;;;12.40;99.90;;;;;;4994308;28;20392;-60
2021/11/14 12:19:39;;;;;;;20.03;17.47;;;12.40;99.90;;;;;;4990117;28;20460;-59
2021/11/14 12:22:18;;;;;;;20.03;17.67;;;12.70;99.90;;;;;;4985057;28;20812;-59
2021/11/14 12:24:51;;;;;;;19.13;16.77;;;13.00;99.90;;;;;;4994570;28;20940;-60
2021/11/14 12:27:31;;;;;;;18.57;16.33;;;13.10;99.90;;;;;;4994246;28;20462;-59
2021/11/14 12:30:11;;;;;;;19.70;16.37;;;13.40;99.90;;;;;;4994290;28;20513;-60
2021/11/14 12:32:43;;;;;;;20.20;16.60;;;13.40;99.90;;;;;;4993179;28;20401;-58